Fritz Creek, Alaska
Current Conditions -  °F | °C
As of 12:53 AM on Thursday 23 Oct 2014 (Local Time) from PAHO Reporting Station
Clear Clear  
Wind Chill: 31°   Ceiling: Unl
Heat Index: 31°   Visibility: 10mi
Dew Point: 22°   Wind: 3mph
Humidity: 69%   Direction: 50°NE
Pressure: 29.54"   Gusts: NA
Location:  59.7153°N, 150.773°W
Report Text: PAHO 230853Z AUTO 05003KT 10SM CLR M01/M06 A2954 RMK AO2 SLP004 T10061056 400941028 53023 TSNO
Loading
Personal Weather Stations






























Interactive Weather Map
Tropical Storm Tracking
New forecast layout! Learn more

10-Day Weather Forecast

Advertisements
Track Severe Weather on mobile